Terminal Aerodrome Forecast
Issued by NWS

Home | Current Version | Previous Version | Graphics & Text | Print | Product List | Glossary On
Versions: 1 2 3 4 5 6 7 8 9 10 11 12 13 14 15 16 17 18 19
508
FTUS43 KICT 271859 AAA
TAFCNU
TAF AMD
KCNU 271859Z 2719/2818 19010KT P6SM VCTS SCT015 BKN035CB
      TEMPO 2719/2721 -SHRA SCT035 BKN070
     FM280100 16010KT P6SM SCT035
     FM280500 16010KT P6SM VCTS SCT008 OVC025CB=

USA.gov is the U.S. government's official web portal to all federal, state and local government web resources and services.